Time;durP1;ratioP1;P1;durP2;ratioP2;P2;SDS_P1;SDS_P2;PMS_P1;PMS_P2;Temp;Humidity;BMP_temperature;BMP_pressure;BME280_temperature;BME280_humidity;BME280_pressure;Samples;Min_cycle;Max_cycle;Signal;HPM_P1;HPM_P2
2022/07/13 00:00:36;;;;;;;2.10;1.90;;;18.20;89.00;;;;;;5078524;28;20491;-45
2022/07/13 00:03:02;;;;;;;7.83;2.47;;;18.10;89.60;;;;;;5078068;28;20263;-48
2022/07/13 00:05:28;;;;;;;2.60;1.93;;;18.10;89.80;;;;;;5078515;28;20173;-44
2022/07/13 00:07:54;;;;;;;2.40;2.20;;;18.00;90.00;;;;;;5078318;28;20420;-45
2022/07/13 00:10:19;;;;;;;2.17;1.97;;;18.00;90.10;;;;;;5077895;28;20190;-45
2022/07/13 00:12:45;;;;;;;4.10;2.30;;;18.00;90.20;;;;;;5078647;28;20188;-44
2022/07/13 00:15:11;;;;;;;3.20;2.23;;;18.00;90.20;;;;;;5077675;28;20584;-44
2022/07/13 00:17:37;;;;;;;2.23;2.00;;;18.00;90.30;;;;;;5078650;28;20477;-46
2022/07/13 00:20:03;;;;;;;5.03;2.50;;;18.00;90.60;;;;;;5078607;28;20469;-44
2022/07/13 00:22:29;;;;;;;3.30;2.20;;;18.00;90.70;;;;;;5078827;28;20273;-46
2022/07/13 00:24:54;;;;;;;3.37;1.97;;;18.00;90.70;;;;;;5078637;28;20514;-46
2022/07/13 00:27:20;;;;;;;2.50;2.23;;;17.90;90.60;;;;;;5077438;28;20174;-45
2022/07/13 00:29:45;;;;;;;3.07;2.77;;;17.90;90.60;;;;;;5077353;28;20184;-44
2022/07/13 00:32:11;;;;;;;2.60;2.40;;;17.90;90.80;;;;;;5077566;28;20254;-45
2022/07/13 00:34:37;;;;;;;2.63;2.40;;;17.80;90.90;;;;;;5077802;28;20270;-45
2022/07/13 00:37:02;;;;;;;3.53;2.67;;;17.70;91.00;;;;;;5078290;28;20268;-50
2022/07/13 00:39:28;;;;;;;2.27;2.07;;;17.70;91.30;;;;;;5077979;28;20187;-46
2022/07/13 00:41:53;;;;;;;3.80;2.30;;;17.70;91.30;;;;;;5078317;28;20190;-46
2022/07/13 00:44:19;;;;;;;4.27;2.37;;;17.70;91.20;;;;;;5078176;28;20547;-44
2022/07/13 00:46:54;;;;;;;2.63;2.33;;;17.70;91.30;;;;;;5076907;28;20195;-45
2022/07/13 00:49:22;;;;;;;2.73;2.20;;;17.80;91.30;;;;;;5077688;28;20184;-46
2022/07/13 00:51:47;;;;;;;2.40;2.17;;;17.70;91.20;;;;;;5077652;28;20421;-44
2022/07/13 00:54:13;;;;;;;2.60;2.40;;;17.60;91.40;;;;;;5077294;28;20423;-46
2022/07/13 00:56:38;;;;;;;1.93;1.73;;;17.50;91.70;;;;;;5077495;28;20181;-44
2022/07/13 00:59:07;;;;;;;2.70;2.40;;;17.50;91.70;;;;;;5075782;28;20273;-44
2022/07/13 01:01:33;;;;;;;3.10;2.23;;;17.50;91.90;;;;;;5077799;28;20186;-43
2022/07/13 01:03:59;;;;;;;2.60;2.00;;;17.40;91.90;;;;;;5076492;28;20506;-46
2022/07/13 01:06:24;;;;;;;2.40;2.20;;;17.40;92.00;;;;;;5077814;28;20470;-45
2022/07/13 01:08:50;;;;;;;2.67;2.47;;;17.40;92.10;;;;;;5077375;28;20419;-46
2022/07/13 01:11:16;;;;;;;2.67;2.27;;;17.40;92.10;;;;;;5077643;28;20173;-45
2022/07/13 01:13:41;;;;;;;3.33;2.30;;;17.40;92.20;;;;;;5077637;28;20183;-44
2022/07/13 01:16:10;;;;;;;2.53;2.17;;;17.40;92.20;;;;;;5077753;28;20210;-44
2022/07/13 01:18:37;;;;;;;2.30;2.10;;;17.40;92.40;;;;;;5078046;28;20203;-46
2022/07/13 01:21:05;;;;;;;2.67;2.30;;;17.30;92.40;;;;;;5076291;28;20431;-44
2022/07/13 01:24:07;;;;;;;5.00;2.67;;;17.40;92.40;;;;;;5077693;28;20426;-45
2022/07/13 01:26:33;;;;;;;2.60;2.40;;;17.40;92.40;;;;;;5077227;28;20425;-44
2022/07/13 01:28:59;;;;;;;2.90;2.17;;;17.40;92.50;;;;;;5076620;28;20704;-44
2022/07/13 01:31:38;;;;;;;2.97;2.20;;;17.40;92.60;;;;;;5077769;28;20532;-47
2022/07/13 01:34:05;;;;;;;4.70;2.17;;;17.30;92.50;;;;;;5075871;28;20171;-45
2022/07/13 01:36:31;;;;;;;2.80;2.40;;;17.30;92.50;;;;;;5077065;28;20467;-47
2022/07/13 01:38:57;;;;;;;3.33;2.13;;;17.40;92.60;;;;;;5076813;28;20419;-44
2022/07/13 01:41:24;;;;;;;2.97;2.30;;;17.40;92.60;;;;;;5075680;28;20420;-46
2022/07/13 01:43:50;;;;;;;2.90;2.37;;;17.40;92.70;;;;;;5076103;28;20626;-45
2022/07/13 01:46:16;;;;;;;3.43;2.50;;;17.40;92.50;;;;;;5075555;28;20455;-45
2022/07/13 01:48:42;;;;;;;2.53;2.27;;;17.30;92.50;;;;;;5076261;28;20190;-45
2022/07/13 01:51:08;;;;;;;4.50;1.90;;;17.30;92.60;;;;;;5077302;28;20407;-45
2022/07/13 01:53:33;;;;;;;2.73;2.10;;;17.30;93.10;;;;;;5076323;28;20413;-46
2022/07/13 01:55:59;;;;;;;2.47;2.27;;;17.30;92.90;;;;;;5075072;28;20212;-47
2022/07/13 01:58:26;;;;;;;2.50;2.30;;;17.30;93.10;;;;;;5076800;28;20655;-47
2022/07/13 02:00:52;;;;;;;2.33;2.07;;;17.30;93.00;;;;;;5077416;28;20202;-45
2022/07/13 02:03:18;;;;;;;2.60;2.30;;;17.30;93.00;;;;;;5076377;28;20429;-47
2022/07/13 02:05:43;;;;;;;2.33;2.07;;;17.30;93.10;;;;;;5076884;28;20440;-45
2022/07/13 02:08:09;;;;;;;2.97;2.67;;;17.30;93.10;;;;;;5076561;28;20185;-45
2022/07/13 02:10:34;;;;;;;2.70;2.50;;;17.30;93.10;;;;;;5075898;28;20599;-44
2022/07/13 02:13:04;;;;;;;2.50;2.30;;;17.30;93.10;;;;;;5076722;28;20186;-46
2022/07/13 02:15:30;;;;;;;2.60;2.40;;;17.30;93.10;;;;;;5076721;28;20210;-45
2022/07/13 02:17:55;;;;;;;2.87;2.47;;;17.30;93.10;;;;;;5076425;28;20424;-45
2022/07/13 02:20:21;;;;;;;2.40;1.97;;;17.30;93.10;;;;;;5075855;28;20173;-45
2022/07/13 02:22:47;;;;;;;2.33;2.10;;;17.30;93.00;;;;;;5076277;28;20223;-45
2022/07/13 02:25:13;;;;;;;3.00;2.20;;;17.30;93.00;;;;;;5077321;28;20192;-47
2022/07/13 02:27:40;;;;;;;2.70;2.50;;;17.20;93.00;;;;;;5075804;28;20185;-44
2022/07/13 02:30:06;;;;;;;2.27;2.07;;;17.20;93.10;;;;;;5077225;28;20473;-47
2022/07/13 02:32:32;;;;;;;2.30;2.10;;;17.10;93.30;;;;;;5076997;28;20544;-44
2022/07/13 02:34:57;;;;;;;2.60;2.40;;;17.10;93.40;;;;;;5079967;28;20566;-46
2022/07/13 02:37:23;;;;;;;2.57;2.37;;;17.10;93.50;;;;;;5079857;28;20178;-47
2022/07/13 02:39:51;;;;;;;3.80;2.47;;;17.00;93.30;;;;;;5080255;28;20460;-45
2022/07/13 02:42:17;;;;;;;2.67;2.10;;;17.00;93.60;;;;;;5079264;28;20179;-44
2022/07/13 02:44:42;;;;;;;2.30;2.10;;;17.00;93.80;;;;;;5079978;28;20521;-45
2022/07/13 02:47:08;;;;;;;3.57;2.90;;;17.00;93.70;;;;;;5080044;28;20428;-44
2022/07/13 02:49:34;;;;;;;2.30;2.10;;;17.00;93.70;;;;;;5079444;28;20178;-45
2022/07/13 02:51:59;;;;;;;2.67;2.43;;;17.00;93.80;;;;;;5079849;28;20185;-46
2022/07/13 02:54:25;;;;;;;2.20;2.00;;;17.00;93.80;;;;;;5079345;28;20213;-45
2022/07/13 02:56:50;;;;;;;2.93;2.50;;;17.00;93.80;;;;;;5080338;28;20179;-44
2022/07/13 02:59:16;;;;;;;2.60;2.40;;;17.00;93.80;;;;;;5078594;28;20578;-45
2022/07/13 03:01:41;;;;;;;2.73;2.53;;;17.00;93.60;;;;;;5080380;28;20189;-45
2022/07/13 03:04:07;;;;;;;2.97;2.13;;;17.00;93.70;;;;;;5080197;28;20448;-45
2022/07/13 03:06:33;;;;;;;3.20;1.87;;;17.00;93.70;;;;;;5079041;28;20212;-46
2022/07/13 03:08:58;;;;;;;2.33;2.10;;;17.10;93.70;;;;;;5079356;28;20272;-45
2022/07/13 03:11:24;;;;;;;2.60;2.37;;;17.00;93.60;;;;;;5077884;28;20243;-46
2022/07/13 03:13:49;;;;;;;2.23;2.03;;;17.00;93.60;;;;;;5079784;28;20188;-47
2022/07/13 03:16:15;;;;;;;3.57;2.50;;;17.00;93.70;;;;;;5079097;28;20295;-45
2022/07/13 03:18:40;;;;;;;2.80;2.33;;;17.00;93.80;;;;;;5078366;28;20253;-46
2022/07/13 03:21:10;;;;;;;3.33;2.20;;;16.90;93.70;;;;;;5078563;28;20551;-46
2022/07/13 03:23:36;;;;;;;2.80;2.23;;;17.00;93.80;;;;;;5077726;28;20463;-45
2022/07/13 03:26:02;;;;;;;2.43;2.20;;;16.90;93.80;;;;;;5079127;28;20428;-44
2022/07/13 03:28:28;;;;;;;2.70;2.40;;;16.90;93.80;;;;;;5079390;28;20432;-43
2022/07/13 03:30:53;;;;;;;2.37;1.90;;;16.90;93.90;;;;;;5078490;28;20479;-44
2022/07/13 03:33:19;;;;;;;2.40;2.20;;;16.90;93.90;;;;;;5079439;28;20525;-47
2022/07/13 03:35:45;;;;;;;2.40;2.20;;;16.90;93.80;;;;;;5079199;28;20225;-44
2022/07/13 03:38:10;;;;;;;3.20;2.90;;;16.90;93.90;;;;;;5079133;28;20170;-46
2022/07/13 03:40:36;;;;;;;2.67;2.47;;;16.90;93.80;;;;;;5079238;28;20260;-47
2022/07/13 03:43:01;;;;;;;2.37;2.13;;;16.90;93.90;;;;;;5079298;28;20194;-44
2022/07/13 03:45:27;;;;;;;2.47;2.27;;;16.90;93.90;;;;;;5077672;28;20202;-46
2022/07/13 03:47:53;;;;;;;2.37;1.93;;;16.80;93.80;;;;;;5079132;28;20184;-44
2022/07/13 03:50:18;;;;;;;3.07;2.50;;;16.90;93.80;;;;;;5078980;28;20218;-45
2022/07/13 03:52:44;;;;;;;2.67;2.03;;;16.90;93.70;;;;;;5078541;28;20194;-45
2022/07/13 03:55:11;;;;;;;2.40;2.20;;;16.90;93.80;;;;;;5077836;28;20226;-45
2022/07/13 03:57:36;;;;;;;2.73;2.50;;;16.90;93.80;;;;;;5076259;28;20513;-47
2022/07/13 04:00:03;;;;;;;2.70;2.50;;;16.90;93.80;;;;;;5076647;28;20423;-44
2022/07/13 04:02:29;;;;;;;3.60;2.47;;;16.80;93.80;;;;;;5076199;28;20205;-43
2022/07/13 04:04:54;;;;;;;3.23;2.60;;;16.80;93.70;;;;;;5076965;28;20471;-47
2022/07/13 04:07:21;;;;;;;3.30;3.00;;;16.80;93.80;;;;;;5076733;28;20274;-47
2022/07/13 04:09:46;;;;;;;2.60;2.40;;;16.90;93.80;;;;;;5074288;28;20186;-44
2022/07/13 04:12:12;;;;;;;2.43;2.23;;;16.90;93.70;;;;;;5074542;28;20444;-45
2022/07/13 04:14:37;;;;;;;3.63;2.57;;;16.90;93.70;;;;;;5075785;28;20302;-46
2022/07/13 04:17:03;;;;;;;3.10;2.80;;;16.90;93.70;;;;;;5075512;28;20182;-45
2022/07/13 04:19:28;;;;;;;3.03;2.27;;;16.90;93.80;;;;;;5075353;28;20229;-45
2022/07/13 04:21:54;;;;;;;2.80;2.30;;;16.90;93.80;;;;;;5075191;28;20235;-47
2022/07/13 04:24:20;;;;;;;2.70;2.50;;;16.90;93.80;;;;;;5076481;28;20238;-44
2022/07/13 04:26:45;;;;;;;2.53;2.33;;;16.90;93.80;;;;;;5076265;28;20179;-44
2022/07/13 04:29:11;;;;;;;3.43;2.17;;;16.90;93.80;;;;;;5076765;28;20206;-46
2022/07/13 04:31:36;;;;;;;3.90;2.30;;;17.00;93.80;;;;;;5076511;28;20688;-45
2022/07/13 04:34:02;;;;;;;2.80;2.60;;;17.00;93.80;;;;;;5076292;28;20184;-42
2022/07/13 04:36:27;;;;;;;2.90;2.63;;;17.10;93.70;;;;;;5072988;28;20241;-44
2022/07/13 04:38:54;;;;;;;2.63;2.27;;;17.20;93.50;;;;;;5073266;28;20283;-45
2022/07/13 04:41:20;;;;;;;3.70;2.47;;;17.30;93.40;;;;;;5072447;28;20550;-45
2022/07/13 04:43:46;;;;;;;2.60;1.90;;;17.40;93.30;;;;;;5070940;28;20467;-44
2022/07/13 04:46:12;;;;;;;2.33;2.10;;;17.50;93.20;;;;;;5069657;28;20182;-45
2022/07/13 04:48:38;;;;;;;3.20;2.00;;;17.50;93.00;;;;;;5070162;28;20227;-44
2022/07/13 04:51:04;;;;;;;3.27;2.23;;;17.60;92.90;;;;;;5070898;28;20412;-44
2022/07/13 04:53:30;;;;;;;2.27;2.07;;;17.70;92.80;;;;;;5071107;28;20477;-45
2022/07/13 04:55:56;;;;;;;2.73;1.90;;;17.80;92.70;;;;;;5070231;28;20209;-46
2022/07/13 04:58:21;;;;;;;3.53;2.20;;;17.80;92.50;;;;;;5071841;28;20179;-44
2022/07/13 05:00:47;;;;;;;2.40;2.20;;;17.90;92.40;;;;;;5072289;28;20436;-44
2022/07/13 05:03:12;;;;;;;2.83;2.40;;;18.00;92.30;;;;;;5072966;28;20178;-44
2022/07/13 05:05:38;;;;;;;3.13;2.07;;;18.10;92.40;;;;;;5071768;28;20571;-45
2022/07/13 05:08:05;;;;;;;2.20;2.00;;;18.10;92.30;;;;;;5070965;28;20190;-46
2022/07/13 05:10:31;;;;;;;3.37;2.17;;;18.20;92.20;;;;;;5072824;28;20211;-44
2022/07/13 05:12:57;;;;;;;2.87;2.27;;;18.20;92.10;;;;;;5071612;28;20842;-46
2022/07/13 05:15:22;;;;;;;2.17;1.97;;;18.30;92.00;;;;;;5071727;28;20220;-44
2022/07/13 05:17:48;;;;;;;4.27;2.73;;;18.30;92.20;;;;;;5070605;28;20425;-46
2022/07/13 05:20:14;;;;;;;3.00;2.40;;;18.30;92.20;;;;;;5073388;28;20569;-45
2022/07/13 05:22:39;;;;;;;2.20;2.00;;;18.40;92.20;;;;;;5073865;28;20200;-46
2022/07/13 05:25:05;;;;;;;2.03;1.70;;;18.40;92.20;;;;;;5071574;28;20572;-44
2022/07/13 05:27:31;;;;;;;2.50;2.20;;;18.50;92.00;;;;;;5068289;28;20452;-46
2022/07/13 05:29:57;;;;;;;3.43;2.30;;;18.60;91.90;;;;;;5069103;28;20434;-43
2022/07/13 05:32:22;;;;;;;2.97;2.67;;;18.70;91.80;;;;;;5070905;28;20300;-44
2022/07/13 05:34:49;;;;;;;2.90;2.70;;;18.70;91.60;;;;;;5070045;28;20741;-43
2022/07/13 05:37:15;;;;;;;3.30;2.23;;;18.80;91.50;;;;;;5069784;28;20205;-43
2022/07/13 05:39:44;;;;;;;3.10;2.30;;;19.00;91.40;;;;;;5072044;28;20453;-44
2022/07/13 05:42:10;;;;;;;2.87;2.50;;;19.10;91.40;;;;;;5071712;28;20190;-46
2022/07/13 05:44:36;;;;;;;3.97;2.43;;;19.10;91.30;;;;;;5072642;28;20420;-45
2022/07/13 05:47:02;;;;;;;3.47;2.40;;;19.20;90.90;;;;;;5071490;28;20419;-43
2022/07/13 05:49:27;;;;;;;2.13;1.90;;;19.20;91.00;;;;;;5068991;28;20185;-44
2022/07/13 05:51:53;;;;;;;2.73;2.07;;;19.30;91.10;;;;;;5070333;28;20181;-44
2022/07/13 05:54:18;;;;;;;2.57;2.00;;;19.30;90.90;;;;;;5068856;28;20511;-45
2022/07/13 05:56:44;;;;;;;2.73;1.80;;;19.30;90.60;;;;;;5068973;28;20223;-45
2022/07/13 05:59:10;;;;;;;2.47;1.87;;;19.40;90.50;;;;;;5070295;28;20185;-42
2022/07/13 06:01:35;;;;;;;2.07;1.70;;;19.50;90.40;;;;;;5070335;28;20597;-45
2022/07/13 06:04:02;;;;;;;2.03;1.83;;;19.50;90.10;;;;;;5072033;28;20276;-45
2022/07/13 06:06:28;;;;;;;2.53;2.33;;;19.70;90.10;;;;;;5072847;28;20266;-44
2022/07/13 06:08:54;;;;;;;2.00;1.83;;;19.80;89.90;;;;;;5075513;28;20519;-46
2022/07/13 06:11:19;;;;;;;3.93;1.87;;;19.90;89.30;;;;;;5075893;28;20334;-46
2022/07/13 06:13:46;;;;;;;2.83;1.70;;;20.20;89.10;;;;;;5075669;28;20179;-49
2022/07/13 06:16:12;;;;;;;2.30;2.00;;;20.40;88.50;;;;;;5073071;28;20202;-46
2022/07/13 06:18:38;;;;;;;2.53;2.00;;;20.60;86.40;;;;;;5073403;28;20701;-45
2022/07/13 06:21:03;;;;;;;2.83;1.60;;;20.80;85.20;;;;;;5071446;28;20169;-44
2022/07/13 06:23:29;;;;;;;2.20;2.00;;;20.90;85.00;;;;;;5073241;28;20259;-45
2022/07/13 06:25:55;;;;;;;2.37;1.70;;;21.00;85.70;;;;;;5073744;28;20514;-43
2022/07/13 06:28:20;;;;;;;2.47;2.10;;;21.00;85.10;;;;;;5074484;28;20586;-44
2022/07/13 06:30:46;;;;;;;2.30;2.03;;;21.10;85.10;;;;;;5074546;28;20333;-45
2022/07/13 06:33:11;;;;;;;2.60;2.00;;;21.10;85.00;;;;;;5075593;28;20273;-46
2022/07/13 06:35:37;;;;;;;4.93;2.20;;;21.20;85.00;;;;;;5076415;28;20215;-45
2022/07/13 06:38:03;;;;;;;2.30;1.53;;;21.20;85.10;;;;;;5074199;28;20187;-45
2022/07/13 06:40:28;;;;;;;1.93;1.73;;;21.40;84.60;;;;;;5075288;28;20611;-43
2022/07/13 06:42:54;;;;;;;2.27;2.07;;;21.50;83.70;;;;;;5075449;28;20175;-45
2022/07/13 06:45:22;;;;;;;4.27;1.87;;;21.70;83.10;;;;;;5074125;28;20232;-43
2022/07/13 06:47:48;;;;;;;3.30;1.70;;;21.90;82.30;;;;;;5075317;28;20546;-43
2022/07/13 06:50:14;;;;;;;3.77;1.90;;;22.00;81.20;;;;;;5075380;28;20572;-44
2022/07/13 06:52:40;;;;;;;2.40;1.60;;;22.20;80.30;;;;;;5076582;28;20788;-47
2022/07/13 06:55:07;;;;;;;2.10;1.50;;;22.30;79.60;;;;;;5076186;28;20213;-46
2022/07/13 06:57:33;;;;;;;2.20;1.50;;;22.40;78.70;;;;;;5076102;28;20425;-48
2022/07/13 06:59:59;;;;;;;1.83;1.53;;;22.60;78.40;;;;;;5076163;28;20420;-45
2022/07/13 07:02:25;;;;;;;3.23;1.60;;;22.70;76.20;;;;;;5076530;28;20441;-46
2022/07/13 07:04:51;;;;;;;2.33;1.80;;;22.90;76.30;;;;;;5078220;28;20576;-45
2022/07/13 07:07:17;;;;;;;2.90;1.80;;;23.10;76.40;;;;;;5078123;28;20602;-44
2022/07/13 07:09:42;;;;;;;2.07;1.50;;;23.30;75.80;;;;;;5073259;28;20434;-45
2022/07/13 07:12:08;;;;;;;3.43;1.70;;;23.60;74.80;;;;;;5075610;28;20184;-44
2022/07/13 07:14:33;;;;;;;1.50;1.37;;;23.90;72.90;;;;;;5077067;28;20212;-46
2022/07/13 07:17:02;;;;;;;1.80;1.50;;;24.30;72.10;;;;;;5076853;28;20526;-46
2022/07/13 07:19:28;;;;;;;1.80;1.53;;;24.60;70.40;;;;;;5076223;28;20176;-43
2022/07/13 07:21:54;;;;;;;3.53;1.50;;;24.90;68.90;;;;;;5074408;28;20815;-43
2022/07/13 07:24:20;;;;;;;4.53;1.70;;;25.00;65.70;;;;;;5073748;28;20800;-45
2022/07/13 07:26:47;;;;;;;1.67;1.47;;;25.10;66.40;;;;;;5072500;28;20419;-44
2022/07/13 07:29:13;;;;;;;1.90;1.50;;;25.00;65.00;;;;;;5072063;28;20426;-45
2022/07/13 07:31:39;;;;;;;1.30;1.20;;;25.00;65.10;;;;;;5075406;28;20488;-44
2022/07/13 07:34:04;;;;;;;1.33;1.23;;;25.20;63.80;;;;;;5073430;28;20481;-45
2022/07/13 07:36:30;;;;;;;2.47;1.40;;;25.50;60.90;;;;;;5073573;28;20221;-44
2022/07/13 07:38:55;;;;;;;1.60;1.50;;;25.70;59.20;;;;;;5071756;28;20181;-44
2022/07/13 07:41:21;;;;;;;2.07;1.40;;;25.90;58.70;;;;;;5074041;28;20172;-44
2022/07/13 07:43:48;;;;;;;1.63;1.40;;;25.80;59.40;;;;;;5074144;28;20366;-45
2022/07/13 07:46:14;;;;;;;1.67;1.40;;;25.60;59.80;;;;;;5074037;28;20541;-44
2022/07/13 07:48:40;;;;;;;2.40;1.50;;;25.60;60.80;;;;;;5073995;28;20803;-44
2022/07/13 07:51:06;;;;;;;1.73;1.30;;;25.70;60.50;;;;;;5076158;28;20417;-46
2022/07/13 07:53:32;;;;;;;1.87;1.30;;;25.80;60.50;;;;;;5075799;28;20486;-45
2022/07/13 07:55:57;;;;;;;1.43;1.30;;;25.90;61.20;;;;;;5074819;28;20220;-47
2022/07/13 07:58:23;;;;;;;1.87;1.57;;;26.10;61.60;;;;;;5074843;28;20504;-46
2022/07/13 08:00:49;;;;;;;4.07;3.70;;;26.40;59.70;;;;;;5075717;28;20594;-45
2022/07/13 08:03:14;;;;;;;2.40;2.20;;;26.60;59.10;;;;;;5074910;28;20531;-46
2022/07/13 08:05:42;;;;;;;5.80;1.63;;;26.80;58.90;;;;;;5074610;28;20173;-46
2022/07/13 08:08:08;;;;;;;3.87;1.70;;;27.10;57.60;;;;;;5075750;28;20224;-45
2022/07/13 08:10:33;;;;;;;4.13;2.60;;;27.30;58.10;;;;;;5073908;28;20736;-45
2022/07/13 08:13:03;;;;;;;2.03;1.80;;;27.60;56.50;;;;;;5074549;28;20269;-45
2022/07/13 08:15:29;;;;;;;2.77;1.57;;;27.80;55.70;;;;;;5073750;28;20833;-48
2022/07/13 08:17:55;;;;;;;1.83;1.47;;;28.10;55.10;;;;;;5072815;28;20457;-48
2022/07/13 08:20:21;;;;;;;2.30;1.40;;;28.30;53.90;;;;;;5072858;28;20450;-50
2022/07/13 08:22:47;;;;;;;2.20;1.30;;;28.50;52.10;;;;;;5072282;28;20497;-46
2022/07/13 08:25:14;;;;;;;4.07;2.63;;;28.50;51.10;;;;;;5073466;28;20455;-44
2022/07/13 08:27:39;;;;;;;2.00;1.50;;;28.40;52.40;;;;;;5072330;28;20271;-45
2022/07/13 08:30:05;;;;;;;2.87;1.33;;;28.60;52.00;;;;;;5072015;28;20506;-44
2022/07/13 08:32:31;;;;;;;1.67;1.33;;;28.70;51.20;;;;;;5070776;28;20471;-43
2022/07/13 08:40:26;;;;;;;2.73;1.20;;;29.00;47.60;;;;;;5075151;28;20411;-45
2022/07/13 08:42:52;;;;;;;1.57;1.47;;;28.90;47.90;;;;;;5074917;28;20424;-46
2022/07/13 08:45:17;;;;;;;2.80;1.20;;;28.80;47.60;;;;;;5074321;28;20183;-45
2022/07/13 08:47:45;;;;;;;1.83;1.30;;;28.90;46.10;;;;;;5074296;28;20192;-46
2022/07/13 08:50:11;;;;;;;2.17;1.23;;;28.60;44.50;;;;;;5073888;28;20180;-47
2022/07/13 08:52:40;;;;;;;1.53;1.40;;;28.40;45.30;;;;;;5074798;28;20428;-46
2022/07/13 08:55:07;;;;;;;1.63;1.07;;;28.30;46.10;;;;;;5074873;28;20536;-46
2022/07/13 08:57:38;;;;;;;1.50;1.20;;;28.20;44.80;;;;;;5074948;28;20767;-46
2022/07/13 09:00:07;;;;;;;1.40;1.13;;;28.10;45.60;;;;;;5075111;28;20423;-47
2022/07/13 09:02:33;;;;;;;1.83;1.20;;;28.10;45.50;;;;;;5075533;28;20427;-48
2022/07/13 09:05:05;;;;;;;2.17;1.30;;;28.20;45.30;;;;;;5077191;28;20438;-43
2022/07/13 09:07:35;;;;;;;1.90;1.40;;;28.50;45.50;;;;;;5074467;28;20440;-45
2022/07/13 09:10:04;;;;;;;2.00;1.30;;;28.80;45.20;;;;;;5072762;28;20436;-48
2022/07/13 09:12:30;;;;;;;2.43;1.30;;;28.90;45.40;;;;;;5072903;28;20446;-44
2022/07/13 09:15:01;;;;;;;1.30;1.20;;;29.30;46.20;;;;;;5074134;28;20478;-45
2022/07/13 09:17:43;;;;;;;1.80;1.40;;;29.70;43.90;;;;;;5074102;28;20523;-45
2022/07/13 09:20:17;;;;;;;1.63;1.50;;;30.20;43.20;;;;;;5073813;28;20427;-47
2022/07/13 09:22:51;;;;;;;2.30;1.37;;;30.50;41.80;;;;;;5073399;28;20763;-46
2022/07/13 09:25:37;;;;;;;1.73;1.60;;;30.50;40.70;;;;;;5072759;28;20431;-45
2022/07/13 09:28:07;;;;;;;3.00;1.40;;;30.90;40.60;;;;;;5072053;28;20434;-46
2022/07/13 09:30:35;;;;;;;4.10;1.50;;;31.10;39.50;;;;;;5072591;28;20526;-45
2022/07/13 09:33:01;;;;;;;2.27;1.17;;;31.30;39.10;;;;;;5073032;28;20433;-45
2022/07/13 09:35:39;;;;;;;2.20;1.20;;;31.50;38.00;;;;;;5074220;28;20499;-45
2022/07/13 09:38:05;;;;;;;2.30;1.00;;;31.50;36.50;;;;;;5070746;28;20424;-47
2022/07/13 09:40:30;;;;;;;2.87;1.30;;;31.70;38.90;;;;;;5070159;28;20417;-45
2022/07/13 09:48:26;;;;;;;1.93;1.03;;;32.20;36.50;;;;;;5071980;28;20430;-44
2022/07/13 09:50:54;;;;;;;4.33;1.33;;;32.30;36.20;;;;;;5071601;28;20806;-45
2022/07/13 09:53:28;;;;;;;2.03;1.10;;;32.30;36.10;;;;;;5072860;28;20688;-47
2022/07/13 09:55:57;;;;;;;2.00;1.33;;;32.50;34.20;;;;;;5073679;28;20568;-45
2022/07/13 09:58:30;;;;;;;1.53;1.00;;;32.50;35.10;;;;;;5073474;28;20423;-45
2022/07/13 10:00:57;;;;;;;1.57;0.90;;;32.70;34.00;;;;;;5075981;28;20418;-46
2022/07/13 10:03:24;;;;;;;2.50;1.10;;;32.90;31.90;;;;;;5076389;28;20863;-47
2022/07/13 10:05:51;;;;;;;1.20;0.83;;;33.20;33.60;;;;;;5076373;28;20811;-46
2022/07/13 10:08:18;;;;;;;1.37;0.80;;;33.70;31.30;;;;;;5076125;28;20435;-46
2022/07/13 10:10:44;;;;;;;1.87;1.20;;;33.80;31.90;;;;;;5076040;28;20420;-46
2022/07/13 10:13:11;;;;;;;1.30;1.00;;;34.10;32.00;;;;;;5074794;28;20474;-44
2022/07/13 10:15:37;;;;;;;4.40;1.23;;;34.50;32.50;;;;;;5076782;28;20725;-45
2022/07/13 10:18:04;;;;;;;1.20;1.00;;;34.70;32.50;;;;;;5077578;28;20402;-46
2022/07/13 10:20:30;;;;;;;1.20;1.00;;;34.70;32.20;;;;;;5077153;28;20773;-45
2022/07/13 10:22:55;;;;;;;2.73;1.20;;;34.60;31.90;;;;;;5076061;28;20514;-47
2022/07/13 10:25:24;;;;;;;1.40;1.17;;;35.10;32.90;;;;;;5075104;28;20185;-47
2022/07/13 10:28:05;;;;;;;1.43;1.20;;;35.50;32.20;;;;;;5076023;28;20217;-47
2022/07/13 10:30:31;;;;;;;1.40;1.00;;;36.00;31.50;;;;;;5075698;28;20434;-46
2022/07/13 10:33:17;;;;;;;1.30;0.80;;;36.50;28.50;;;;;;5075762;28;20485;-52
2022/07/13 10:35:53;;;;;;;2.50;0.80;;;36.70;28.10;;;;;;5075623;28;20511;-45
2022/07/13 10:38:27;;;;;;;2.60;1.10;;;36.90;28.00;;;;;;5076631;28;20439;-45
2022/07/13 10:41:18;;;;;;;2.50;1.00;;;37.10;27.30;;;;;;5077723;28;20405;-44
2022/07/13 10:43:55;;;;;;;1.97;0.87;;;37.00;27.10;;;;;;5063294;28;20772;-46
2022/07/13 10:46:45;;;;;;;1.53;1.00;;;36.90;27.90;;;;;;5073466;28;20705;-45
2022/07/13 10:49:32;;;;;;;1.30;1.00;;;37.00;28.50;;;;;;5065171;28;20459;-46
2022/07/13 10:52:25;;;;;;;1.20;1.00;;;37.10;27.60;;;;;;5075966;28;20748;-47
2022/07/13 10:55:03;;;;;;;4.70;1.60;;;36.70;27.40;;;;;;5073206;28;20983;-47
2022/07/13 10:57:33;;;;;;;2.00;0.90;;;36.50;27.80;;;;;;5072713;28;20701;-47
2022/07/13 11:00:28;;;;;;;1.67;1.37;;;36.60;27.30;;;;;;5073417;28;21000;-45
2022/07/13 11:03:06;;;;;;;1.30;0.90;;;36.90;27.60;;;;;;5072818;28;20825;-46
2022/07/13 11:05:36;;;;;;;4.60;1.10;;;37.40;27.50;;;;;;5074150;28;20499;-46
2022/07/13 11:08:12;;;;;;;1.97;1.10;;;37.80;26.80;;;;;;5073522;28;20420;-47
2022/07/13 11:10:38;;;;;;;1.80;0.93;;;38.10;26.90;;;;;;5072487;28;20498;-46
2022/07/13 11:13:09;;;;;;;2.30;1.30;;;38.30;26.80;;;;;;5068632;28;20916;-46
2022/07/13 11:15:50;;;;;;;10.77;2.00;;;38.20;25.80;;;;;;5071504;28;20202;-46
2022/07/13 11:18:22;;;;;;;1.60;1.07;;;37.60;26.70;;;;;;5070670;28;20427;-46
2022/07/13 11:21:12;;;;;;;88.13;17.57;;;37.40;26.20;;;;;;5072200;28;20385;-45
2022/07/13 11:26:46;;;;;;;12.80;3.10;;;38.10;25.30;;;;;;5071068;28;20412;-46
2022/07/13 11:29:22;;;;;;;11.10;2.23;;;38.50;24.70;;;;;;5069173;28;20424;-48
2022/07/13 11:31:56;;;;;;;4.30;1.20;;;38.90;23.90;;;;;;5070183;28;20487;-47
2022/07/13 11:34:22;;;;;;;9.10;2.10;;;39.10;24.30;;;;;;5071738;28;20433;-47
2022/07/13 11:36:47;;;;;;;3.03;0.90;;;39.60;25.00;;;;;;5072629;28;20436;-46
2022/07/13 11:39:26;;;;;;;1.00;0.70;;;39.90;24.10;;;;;;5072724;28;20494;-46
2022/07/13 11:41:53;;;;;;;2.33;0.90;;;39.40;23.80;;;;;;5074504;28;20175;-46
2022/07/13 11:44:24;;;;;;;1.80;1.07;;;39.00;24.40;;;;;;5056298;28;20738;-46
2022/07/13 11:46:54;;;;;;;4.10;1.30;;;38.60;24.50;;;;;;5073929;28;20679;-47
2022/07/13 11:49:21;;;;;;;2.50;1.47;;;38.60;25.40;;;;;;5075526;28;20410;-46
2022/07/13 11:51:47;;;;;;;1.30;0.80;;;39.10;25.70;;;;;;5073563;28;20524;-45
2022/07/13 11:54:19;;;;;;;1.20;0.70;;;39.70;23.80;;;;;;5072602;28;20440;-45
2022/07/13 11:56:48;;;;;;;1.50;0.80;;;39.70;23.90;;;;;;5073944;28;20603;-46
2022/07/13 11:59:15;;;;;;;1.77;0.80;;;39.80;24.20;;;;;;5072688;28;20392;-49
2022/07/13 12:01:50;;;;;;;1.20;0.80;;;40.00;24.40;;;;;;5072398;28;20756;-48
2022/07/13 12:04:23;;;;;;;1.20;0.87;;;40.00;23.50;;;;;;5072937;28;21025;-47
2022/07/13 12:06:49;;;;;;;1.23;1.00;;;39.90;24.00;;;;;;5071891;28;20969;-46
2022/07/13 12:09:18;;;;;;;1.53;1.00;;;40.10;23.90;;;;;;5056181;28;20534;-48
2022/07/13 12:11:45;;;;;;;1.20;1.07;;;40.50;24.10;;;;;;5074545;28;20573;-48
2022/07/13 12:14:12;;;;;;;1.40;1.10;;;40.40;23.50;;;;;;5074461;28;20511;-47
2022/07/13 12:16:38;;;;;;;2.90;1.17;;;40.10;23.50;;;;;;5075321;28;20457;-47
2022/07/13 12:19:08;;;;;;;2.03;1.00;;;39.60;24.30;;;;;;5072324;28;20740;-47
2022/07/13 12:21:34;;;;;;;1.87;0.80;;;39.30;24.30;;;;;;5071994;28;20588;-46
2022/07/13 12:24:00;;;;;;;1.03;0.73;;;39.10;24.40;;;;;;5072077;28;20704;-48
2022/07/13 12:26:27;;;;;;;1.27;0.80;;;39.10;23.90;;;;;;5071222;28;20414;-46
2022/07/13 12:28:53;;;;;;;1.20;0.90;;;38.90;23.90;;;;;;5072365;28;20486;-46
2022/07/13 12:31:23;;;;;;;1.00;0.60;;;38.40;24.00;;;;;;5071301;28;20469;-50
2022/07/13 12:33:50;;;;;;;1.10;0.80;;;37.40;24.50;;;;;;5069330;28;20200;-45
2022/07/13 12:36:19;;;;;;;1.83;0.70;;;36.60;24.70;;;;;;5068326;28;20933;-45
2022/07/13 12:39:11;;;;;;;2.30;0.77;;;35.70;24.70;;;;;;5070185;28;20428;-47
2022/07/13 12:41:43;;;;;;;2.37;1.20;;;35.00;25.40;;;;;;5067427;28;20470;-49
2022/07/13 12:44:10;;;;;;;1.87;0.70;;;35.00;26.00;;;;;;5074242;28;20404;-45
2022/07/13 12:46:54;;;;;;;2.27;1.00;;;35.10;25.10;;;;;;5071654;28;20426;-46
2022/07/13 12:49:27;;;;;;;1.83;0.60;;;34.90;24.90;;;;;;5071828;28;20474;-50
2022/07/13 12:51:53;;;;;;;2.00;0.80;;;34.70;24.70;;;;;;5072061;28;20474;-46
2022/07/13 12:54:49;;;;;;;1.50;0.80;;;34.50;24.70;;;;;;5070808;28;20442;-47
2022/07/13 12:57:15;;;;;;;2.33;0.80;;;34.60;25.60;;;;;;5070492;28;20479;-47
2022/07/13 12:59:56;;;;;;;1.23;0.80;;;34.70;24.70;;;;;;5069077;28;20403;-45
2022/07/13 13:02:21;;;;;;;12.27;2.87;;;34.70;24.70;;;;;;5067948;28;20420;-46